CST,Max TemperatureF,Mean TemperatureF,Min TemperatureF,Max Dew PointF,MeanDew PointF,Min DewpointF,Max Humidity, Mean Humidity, Min Humidity, Max Sea Level PressureIn, Mean Sea Level PressureIn, Min Sea Level PressureIn, Max VisibilityMiles, Mean VisibilityMiles, Min VisibilityMiles, Max Wind SpeedMPH, Mean Wind SpeedMPH, Max Gust SpeedMPH,PrecipitationIn, CloudCover, Events, WindDirDegrees
2011-11-1,60,47,33,38,30,27,76,54,39,30.11,29.94,29.80,10,10,10,21,10,26,0.00,2,,14
2011-11-2,47,37,26,36,27,21,83,59,37,30.35,30.26,30.13,10,10,10,28,11,36,0.04,3,Rain,357
2011-11-3,50,35,19,24,19,15,85,56,29,30.39,30.31,30.22,10,10,10,13,5,16,0.00,0,,228
2011-11-4,54,44,33,30,25,19,70,52,34,30.22,30.09,29.93,10,10,10,30,17,40,0.00,0,,175
2011-11-5,59,50,41,41,36,32,82,62,39,29.91,29.67,29.52,10,10,10,32,21,45,0.00,0,,167
2011-11-6,51,42,33,41,30,19,81,59,30,30.03,29.69,29.47,10,10,10,25,14,36,T,3,,239
2011-11-7,51,36,21,22,20,15,78,53,29,30.25,30.20,30.05,10,10,10,13,5,16,0.00,1,,337
2011-11-8,50,40,30,26,22,20,64,47,29,30.22,30.18,30.14,10,10,10,12,5,14,0.00,4,,40
2011-11-9,46,35,24,24,19,13,75,51,27,30.25,30.21,30.16,10,10,10,29,12,38,0.00,0,,309
2011-11-10,43,32,21,20,15,10,77,54,30,30.27,30.15,29.92,10,10,10,17,9,20,0.00,0,,286
2011-11-11,61,45,29,24,21,14,72,46,23,29.87,29.70,29.61,10,10,10,20,7,25,0.00,0,,238
2011-11-12,63,44,25,36,26,18,78,51,24,29.60,29.40,29.24,10,10,10,23,9,29,0.00,0,,191
2011-11-13,51,43,34,32,28,24,64,53,42,29.52,29.38,29.22,10,10,10,21,7,26,T,4,,271
2011-11-14,55,40,24,28,23,20,81,55,28,29.62,29.55,29.46,10,10,10,23,7,32,0.00,2,,252
2011-11-15,48,34,19,29,19,10,69,49,28,30.07,29.80,29.52,10,10,10,30,11,39,0.00,2,,285
2011-11-16,38,27,15,14,9,5,74,52,29,30.30,30.21,30.05,10,10,10,25,9,33,0.00,0,,280
2011-11-17,42,25,7,22,11,4,80,54,27,30.26,30.05,29.68,10,10,10,22,8,31,0.00,0,,168
2011-11-18,52,41,30,26,23,18,69,53,36,29.78,29.65,29.57,10,10,10,20,9,26,0.00,1,,235
2011-11-19,31,22,13,22,15,7,84,73,62,30.28,29.92,29.71,10,9,2,26,15,35,T,6,Snow,10
2011-11-20,29,17,5,20,10,3,84,70,49,30.42,30.34,30.26,10,10,10,14,5,15,0.00,1,,117
2011-11-21,43,32,20,31,24,16,87,75,55,30.28,30.19,30.09,10,9,6,16,9,21,0.00,4,,162
2011-11-22,44,35,25,36,32,25,100,86,71,30.14,30.07,29.98,10,5,2,12,5,15,0.00,6,Fog,169
2011-11-23,51,35,19,33,25,18,100,81,46,30.13,30.07,29.97,10,5,0,13,6,16,0.00,1,Fog,173
2011-11-24,65,53,40,35,31,28,65,50,34,29.94,29.78,29.67,10,10,10,20,11,26,0.00,0,,199
2011-11-25,56,42,27,43,33,24,85,70,49,29.71,29.65,29.57,10,10,10,13,5,17,0.00,1,,215
2011-11-26,39,36,32,32,27,19,87,71,56,30.28,30.03,29.71,10,10,8,37,24,49,T,8,Snow,325
2011-11-27,39,28,16,18,15,10,74,56,37,30.34,30.26,30.18,10,10,10,21,8,28,0.00,2,,332
2011-11-28,50,34,17,31,19,12,82,55,27,30.32,30.15,30.07,10,10,10,17,8,22,0.00,0,,260
2011-11-29,42,29,16,24,13,3,86,56,20,30.43,30.31,30.12,10,10,10,13,3,16,0.00,0,,270
2011-11-30,44,36,27,26,17,8,73,49,38,30.10,29.96,29.84,10,10,10,15,8,,0.00,1,,140